createdAt,value
2018-04-13T00:02:16.759Z,11.09
2018-04-13T00:04:44.762Z,11.01
2018-04-13T00:07:12.380Z,11.01
2018-04-13T00:09:39.978Z,11.02
2018-04-13T00:12:07.618Z,11.16
2018-04-13T00:14:35.187Z,11.07
2018-04-13T00:17:02.827Z,11.14
2018-04-13T00:19:30.476Z,11.38
2018-04-13T00:21:58.065Z,11.50
2018-04-13T00:24:25.644Z,11.21
2018-04-13T00:26:53.291Z,11.22
2018-04-13T00:29:20.907Z,11.25
2018-04-13T00:31:48.533Z,11.27
2018-04-13T00:34:16.268Z,11.34
2018-04-13T00:36:43.880Z,11.41
2018-04-13T00:39:11.507Z,11.37
2018-04-13T00:41:39.201Z,11.40
2018-04-13T00:44:06.816Z,11.37
2018-04-13T00:46:34.455Z,11.25
2018-04-13T00:49:02.103Z,11.26
2018-04-13T00:51:29.743Z,11.34
2018-04-13T00:53:57.319Z,11.37
2018-04-13T00:56:24.926Z,11.31
2018-04-13T00:58:52.572Z,11.32
2018-04-13T01:01:20.164Z,11.25
2018-04-13T01:03:47.796Z,11.16
2018-04-13T01:06:15.469Z,11.20
2018-04-13T01:08:43.119Z,11.30
2018-04-13T01:11:10.721Z,11.34
2018-04-13T01:13:38.374Z,11.27
2018-04-13T01:16:06.037Z,11.21
2018-04-13T01:18:33.641Z,11.18
2018-04-13T01:21:01.296Z,11.17
2018-04-13T01:23:28.920Z,11.11
2018-04-13T01:25:56.586Z,11.02
2018-04-13T01:28:24.173Z,10.96
2018-04-13T01:30:51.859Z,10.95
2018-04-13T01:33:19.484Z,10.92
2018-04-13T01:35:47.125Z,11.28
2018-04-13T01:38:14.780Z,10.95
2018-04-13T01:40:42.407Z,10.91
2018-04-13T01:43:10.026Z,10.86
2018-04-13T01:45:37.633Z,10.96
2018-04-13T01:48:05.290Z,11.08
2018-04-13T01:50:32.946Z,11.18
2018-04-13T01:53:00.557Z,11.22
2018-04-13T01:55:28.217Z,11.45
2018-04-13T01:57:55.844Z,11.25
2018-04-13T02:00:23.489Z,11.14
2018-04-13T02:02:51.115Z,11.00
2018-04-13T02:05:18.734Z,11.11
2018-04-13T02:07:46.320Z,11.24
2018-04-13T02:10:13.969Z,11.30
2018-04-13T02:12:41.564Z,11.34
2018-04-13T02:15:09.218Z,11.24
2018-04-13T02:17:36.878Z,11.24
2018-04-13T02:20:04.625Z,11.23
2018-04-13T02:22:32.220Z,11.21
2018-04-13T02:24:59.812Z,11.28
2018-04-13T02:27:27.468Z,11.29
2018-04-13T02:29:55.050Z,11.46
2018-04-13T02:32:22.718Z,11.40
2018-04-13T02:34:50.334Z,11.41
2018-04-13T02:37:17.940Z,11.34
2018-04-13T02:39:45.639Z,11.39
2018-04-13T02:42:13.371Z,11.39
2018-04-13T02:44:41.003Z,11.37
2018-04-13T02:47:08.595Z,11.31
2018-04-13T02:49:36.251Z,11.34
2018-04-13T02:52:03.951Z,11.38
2018-04-13T02:54:31.556Z,11.37
2018-04-13T02:56:59.172Z,11.39
2018-04-13T02:59:26.825Z,11.45
2018-04-13T03:01:54.422Z,11.30
2018-04-13T03:04:22.066Z,11.26
2018-04-13T03:06:49.689Z,11.23
2018-04-13T03:09:17.357Z,11.23
2018-04-13T03:11:44.942Z,11.27
2018-04-13T03:14:12.603Z,11.34
2018-04-13T03:16:40.223Z,11.27
2018-04-13T03:19:07.811Z,11.21
2018-04-13T03:21:35.474Z,10.94
2018-04-13T03:24:03.142Z,10.88
2018-04-13T03:26:30.747Z,10.84
2018-04-13T03:28:58.330Z,10.86
2018-04-13T03:31:25.991Z,10.86
2018-04-13T03:33:53.636Z,10.88
2018-04-13T03:36:21.277Z,10.78
2018-04-13T03:38:48.915Z,10.75
2018-04-13T03:41:16.558Z,10.69
2018-04-13T03:43:44.145Z,10.58
2018-04-13T03:46:11.804Z,10.48
2018-04-13T03:48:39.444Z,10.49
2018-04-13T03:51:07.034Z,10.46
2018-04-13T03:53:34.730Z,10.46
2018-04-13T03:56:02.318Z,10.48
2018-04-13T03:58:29.954Z,10.45
2018-04-13T04:00:57.564Z,10.30
2018-04-13T04:03:25.235Z,10.34
2018-04-13T04:05:52.850Z,10.23
2018-04-13T04:08:21.399Z,10.27
2018-04-13T04:10:49.039Z,10.30
2018-04-13T04:13:16.709Z,10.33
2018-04-13T04:15:44.300Z,10.36
2018-04-13T04:18:11.908Z,10.34
2018-04-13T04:20:51.347Z,10.35
2018-04-13T04:23:30.509Z,10.07
2018-04-13T04:26:09.779Z,10.15
2018-04-13T04:28:37.375Z,10.16
2018-04-13T04:31:05.656Z,10.26
2018-04-13T04:33:33.487Z,10.36
2018-04-13T04:36:01.161Z,10.42
2018-04-13T04:38:28.835Z,10.29
2018-04-13T04:40:56.497Z,10.23
2018-04-13T04:43:24.312Z,10.31
2018-04-13T04:45:51.948Z,10.42
2018-04-13T04:48:19.603Z,10.31
2018-04-13T04:50:47.251Z,10.30
2018-04-13T04:53:14.861Z,10.38
2018-04-13T04:55:42.549Z,10.37
2018-04-13T04:58:10.225Z,10.38
2018-04-13T05:00:37.819Z,10.43
2018-04-13T05:03:05.529Z,10.45
2018-04-13T05:05:33.248Z,10.32
2018-04-13T05:08:00.953Z,10.18
2018-04-13T05:10:28.606Z,10.26
2018-04-13T05:12:56.261Z,10.89
2018-04-13T05:15:23.896Z,11.97
2018-04-13T05:17:51.536Z,13.73
2018-04-13T05:20:19.315Z,13.81
2018-04-13T05:22:46.910Z,12.72
2018-04-13T05:25:14.581Z,12.34
2018-04-13T05:27:42.236Z,11.83
2018-04-13T05:30:09.904Z,11.71
2018-04-13T05:32:37.504Z,11.62
2018-04-13T05:35:05.129Z,12.02
2018-04-13T05:37:32.778Z,12.30
2018-04-13T05:40:00.400Z,12.59
2018-04-13T05:42:28.056Z,12.81
2018-04-13T05:44:55.663Z,12.79
2018-04-13T05:47:23.279Z,13.03
2018-04-13T05:49:50.956Z,13.24
2018-04-13T05:52:18.564Z,13.37
2018-04-13T05:54:46.221Z,13.39
2018-04-13T05:57:13.846Z,13.46
2018-04-13T05:59:41.481Z,13.53
2018-04-13T06:02:09.137Z,13.82
2018-04-13T06:04:36.792Z,13.64
2018-04-13T06:07:04.516Z,13.93
2018-04-13T06:09:32.130Z,14.33
2018-04-13T06:11:59.828Z,14.45
2018-04-13T06:14:27.581Z,14.42
2018-04-13T06:16:55.189Z,14.84
2018-04-13T06:19:22.887Z,15.02
2018-04-13T06:21:50.511Z,14.89
2018-04-13T06:24:18.181Z,15.35
2018-04-13T06:26:45.835Z,14.87
2018-04-13T06:29:13.507Z,14.38
2018-04-13T06:31:41.177Z,15.09
2018-04-13T06:34:08.861Z,15.59
2018-04-13T06:36:36.495Z,15.59
2018-04-13T06:39:04.224Z,15.59
2018-04-13T06:41:31.817Z,16.13
2018-04-13T06:43:59.470Z,16.14
2018-04-13T06:46:27.079Z,16.39
2018-04-13T06:48:54.793Z,15.62
2018-04-13T06:51:22.362Z,16.31
2018-04-13T06:53:50.061Z,16.95
2018-04-13T06:56:17.662Z,17.43
2018-04-13T06:58:45.330Z,17.43
2018-04-13T07:01:13.014Z,17.15
2018-04-13T07:03:40.684Z,17.47
2018-04-13T07:06:08.259Z,17.79
2018-04-13T07:08:35.904Z,17.09
2018-04-13T07:11:03.623Z,17.14
2018-04-13T07:13:31.290Z,16.84
2018-04-13T07:15:58.947Z,16.60
2018-04-13T07:18:26.564Z,16.02
2018-04-13T07:20:54.277Z,16.93
2018-04-13T07:23:21.928Z,16.74
2018-04-13T07:25:49.558Z,17.35
2018-04-13T07:28:17.242Z,17.64
2018-04-13T07:30:44.871Z,17.04
2018-04-13T07:33:13.241Z,17.97
2018-04-13T07:35:40.154Z,18.75
2018-04-13T07:38:07.867Z,18.77
2018-04-13T07:40:35.513Z,18.87
2018-04-13T07:43:03.113Z,18.34
2018-04-13T07:45:30.781Z,18.61
2018-04-13T07:47:58.421Z,18.45
2018-04-13T07:50:26.056Z,18.49
2018-04-13T07:52:53.707Z,18.56
2018-04-13T07:55:21.295Z,19.03
2018-04-13T07:57:49.748Z,18.41
2018-04-13T08:00:17.965Z,18.21
2018-04-13T08:02:46.346Z,18.92
2018-04-13T08:05:13.954Z,19.14
2018-04-13T08:07:41.627Z,18.63
2018-04-13T08:10:09.249Z,19.24
2018-04-13T08:12:37.342Z,19.08
2018-04-13T08:15:04.739Z,18.18
2018-04-13T08:17:32.370Z,18.00
2018-04-13T08:19:59.999Z,18.64
2018-04-13T08:22:27.603Z,17.86
2018-04-13T08:24:55.231Z,18.25
2018-04-13T08:27:22.858Z,18.61
2018-04-13T08:29:50.533Z,18.75
2018-04-13T08:32:18.309Z,18.91
2018-04-13T08:34:45.947Z,19.29
2018-04-13T08:37:13.590Z,19.02
2018-04-13T08:39:41.226Z,19.33
2018-04-13T08:42:08.951Z,19.55
2018-04-13T08:44:36.523Z,19.44
2018-04-13T08:47:04.234Z,19.28
2018-04-13T08:49:31.858Z,19.05
2018-04-13T08:51:59.513Z,18.85
2018-04-13T08:54:27.157Z,18.91
2018-04-13T08:56:54.785Z,18.73
2018-04-13T08:59:22.415Z,19.20
2018-04-13T09:01:50.004Z,19.21
2018-04-13T09:04:17.646Z,18.38
2018-04-13T09:06:45.299Z,18.72
2018-04-13T09:09:12.892Z,18.67
2018-04-13T09:11:40.551Z,18.12
2018-04-13T09:14:08.172Z,18.79
2018-04-13T09:16:35.819Z,19.01
2018-04-13T09:19:03.450Z,19.28
2018-04-13T09:21:31.083Z,19.28
2018-04-13T09:23:58.795Z,19.18
2018-04-13T09:26:26.462Z,18.75
2018-04-13T09:28:54.185Z,18.74
2018-04-13T09:31:21.829Z,18.32
2018-04-13T09:33:49.479Z,18.32
2018-04-13T09:36:17.082Z,18.69
2018-04-13T09:38:44.706Z,19.05
2018-04-13T09:41:12.421Z,19.18
2018-04-13T09:43:40.053Z,18.79
2018-04-13T09:46:08.346Z,18.80
2018-04-13T09:48:36.043Z,18.98
2018-04-13T09:51:03.835Z,19.29
2018-04-13T09:53:31.486Z,18.97
2018-04-13T09:55:59.359Z,19.66
2018-04-13T09:58:26.974Z,19.48
2018-04-13T10:01:00.549Z,19.42
2018-04-13T10:03:28.341Z,18.83
2018-04-13T10:05:57.182Z,19.32
2018-04-13T10:08:24.950Z,19.32
2018-04-13T10:10:52.608Z,18.92
2018-04-13T10:13:20.300Z,19.10
2018-04-13T10:15:48.006Z,19.40
2018-04-13T10:18:15.636Z,19.93
2018-04-13T10:20:43.312Z,19.79
2018-04-13T10:23:10.940Z,19.31
2018-04-13T10:25:38.597Z,19.40
2018-04-13T10:28:06.261Z,19.88
2018-04-13T10:30:33.861Z,19.17
2018-04-13T10:33:01.529Z,19.23
2018-04-13T10:35:29.194Z,19.36
2018-04-13T10:37:56.849Z,19.67
2018-04-13T10:40:24.484Z,19.54
2018-04-13T10:42:52.126Z,19.68
2018-04-13T10:45:19.745Z,19.80
2018-04-13T10:47:47.397Z,19.67
2018-04-13T10:50:15.008Z,19.35
2018-04-13T10:52:42.674Z,19.38
2018-04-13T10:55:10.257Z,19.53
2018-04-13T10:57:38.042Z,19.55
2018-04-13T11:00:05.671Z,19.66
2018-04-13T11:02:33.283Z,19.46
2018-04-13T11:05:00.992Z,19.58
2018-04-13T11:07:28.639Z,19.72
2018-04-13T11:09:56.273Z,20.01
2018-04-13T11:12:23.977Z,20.32
2018-04-13T11:14:51.598Z,20.14
2018-04-13T11:17:19.238Z,20.05
2018-04-13T11:19:47.010Z,20.24
2018-04-13T11:22:14.669Z,20.31
2018-04-13T11:24:42.320Z,20.02
2018-04-13T11:27:09.931Z,19.82
2018-04-13T11:29:37.631Z,20.04
2018-04-13T11:32:06.390Z,19.87
2018-04-13T11:34:34.103Z,19.66
2018-04-13T11:37:01.796Z,19.28
2018-04-13T11:39:29.508Z,19.30
2018-04-13T11:41:57.116Z,19.48
2018-04-13T11:44:24.829Z,19.46
2018-04-13T11:46:52.534Z,19.76
2018-04-13T11:49:20.242Z,19.78
2018-04-13T11:51:47.949Z,19.20
2018-04-13T11:54:15.607Z,18.95
2018-04-13T11:56:43.276Z,19.14
2018-04-13T11:59:10.968Z,19.30
2018-04-13T12:01:38.709Z,18.82
2018-04-13T12:04:06.399Z,18.79
2018-04-13T12:06:34.076Z,18.47
2018-04-13T12:09:02.437Z,18.39
2018-04-13T12:11:30.051Z,19.20
2018-04-13T12:13:57.769Z,19.17
2018-04-13T12:16:25.548Z,19.57
2018-04-13T12:18:53.257Z,19.01
2018-04-13T12:21:20.895Z,18.59
2018-04-13T12:23:48.587Z,19.41
2018-04-13T12:26:16.240Z,19.67
2018-04-13T12:28:43.947Z,19.22
2018-04-13T12:31:11.611Z,19.15
2018-04-13T12:33:39.357Z,18.97
2018-04-13T12:36:07.202Z,19.02
2018-04-13T12:38:35.179Z,19.71
2018-04-13T12:41:02.833Z,19.36
2018-04-13T12:43:30.540Z,19.71
2018-04-13T12:45:58.244Z,19.78
2018-04-13T12:48:25.966Z,19.46
2018-04-13T12:50:53.679Z,19.33
2018-04-13T12:53:21.432Z,19.36
2018-04-13T12:55:49.170Z,19.36
2018-04-13T12:58:16.768Z,19.29
2018-04-13T13:00:44.411Z,19.76
2018-04-13T13:03:12.019Z,19.56
2018-04-13T13:05:39.735Z,19.55
2018-04-13T13:08:07.564Z,19.21
2018-04-13T13:10:35.207Z,19.53
2018-04-13T13:13:02.935Z,19.54
2018-04-13T13:15:30.556Z,19.90
2018-04-13T13:17:58.235Z,19.85
2018-04-13T13:20:25.949Z,19.54
2018-04-13T13:22:53.637Z,19.48
2018-04-13T13:25:21.375Z,19.54
2018-04-13T13:27:49.011Z,19.40
2018-04-13T13:30:17.860Z,19.76
2018-04-13T13:32:45.573Z,19.37
2018-04-13T13:35:13.596Z,19.44
2018-04-13T13:37:41.269Z,19.64
2018-04-13T13:40:08.905Z,19.52
2018-04-13T13:42:36.697Z,19.75
2018-04-13T13:45:04.338Z,19.78
2018-04-13T13:47:32.014Z,19.48
2018-04-13T13:49:59.623Z,19.26
2018-04-13T13:52:27.283Z,19.03
2018-04-13T13:54:54.986Z,18.72
2018-04-13T13:57:22.635Z,18.56
2018-04-13T13:59:51.488Z,19.05
2018-04-13T14:02:19.122Z,18.62
2018-04-13T14:04:46.790Z,18.78
2018-04-13T14:07:15.123Z,19.12
2018-04-13T14:09:42.771Z,19.03
2018-04-13T14:12:10.436Z,18.57
2018-04-13T14:14:38.039Z,18.88
2018-04-13T14:17:05.694Z,18.90
2018-04-13T14:19:33.357Z,18.99
2018-04-13T14:22:01.486Z,18.77
2018-04-13T14:24:29.132Z,18.63
2018-04-13T14:26:56.819Z,18.97
2018-04-13T14:29:24.690Z,19.00
2018-04-13T14:31:52.705Z,19.14
2018-04-13T14:34:20.394Z,18.84
2018-04-13T14:36:48.039Z,18.80
2018-04-13T14:39:15.722Z,18.83
2018-04-13T14:41:44.054Z,18.77
2018-04-13T14:44:11.705Z,18.76
2018-04-13T14:46:39.383Z,18.55
2018-04-13T14:49:07.001Z,18.57
2018-04-13T14:51:34.637Z,18.83
2018-04-13T14:54:02.290Z,18.70
2018-04-13T14:56:29.902Z,18.68
2018-04-13T14:58:57.567Z,18.60
2018-04-13T15:01:25.499Z,18.46
2018-04-13T15:03:53.132Z,18.38
2018-04-13T15:06:20.728Z,18.34
2018-04-13T15:08:48.397Z,18.66
2018-04-13T15:11:16.943Z,18.65
2018-04-13T15:13:44.599Z,18.56
2018-04-13T15:16:12.564Z,19.00
2018-04-13T15:18:40.212Z,18.74
2018-04-13T15:21:08.368Z,18.75
2018-04-13T15:23:36.030Z,18.81
2018-04-13T15:26:03.711Z,18.68
2018-04-13T15:28:31.382Z,18.47
2018-04-13T15:30:59.092Z,18.50
2018-04-13T15:33:26.688Z,18.75
2018-04-13T15:35:54.316Z,18.58
2018-04-13T15:38:21.975Z,18.64
2018-04-13T15:40:49.619Z,18.50
2018-04-13T15:43:17.235Z,18.60
2018-04-13T15:45:44.905Z,18.70
2018-04-13T15:48:12.543Z,18.56
2018-04-13T15:50:40.196Z,18.17
2018-04-13T15:53:07.895Z,18.11
2018-04-13T15:55:35.499Z,17.86
2018-04-13T15:58:03.140Z,17.68
2018-04-13T16:00:30.774Z,17.64
2018-04-13T16:02:58.495Z,17.69
2018-04-13T16:05:26.306Z,17.65
2018-04-13T16:07:53.968Z,17.54
2018-04-13T16:10:21.680Z,17.49
2018-04-13T16:12:49.480Z,17.39
2018-04-13T16:15:17.097Z,17.52
2018-04-13T16:17:44.779Z,17.60
2018-04-13T16:20:12.656Z,17.53
2018-04-13T16:22:41.511Z,17.46
2018-04-13T16:25:09.220Z,17.34
2018-04-13T16:27:37.104Z,17.07
2018-04-13T16:30:05.000Z,17.08
2018-04-13T16:32:32.632Z,16.65
2018-04-13T16:35:01.491Z,16.51
2018-04-13T16:37:29.138Z,16.34
2018-04-13T16:39:56.795Z,16.34
2018-04-13T16:42:24.399Z,16.03
2018-04-13T16:44:53.062Z,15.85
2018-04-13T16:47:21.807Z,15.93
2018-04-13T16:49:49.672Z,15.88
2018-04-13T16:52:17.334Z,15.75
2018-04-13T16:54:45.026Z,15.63
2018-04-13T16:57:12.685Z,15.48
2018-04-13T16:59:40.330Z,15.54
2018-04-13T17:02:08.033Z,15.45
2018-04-13T17:04:35.662Z,15.41
2018-04-13T17:07:03.314Z,15.32
2018-04-13T17:09:31.075Z,15.34
2018-04-13T17:11:58.806Z,15.18
2018-04-13T17:14:26.806Z,14.97
2018-04-13T17:16:55.289Z,14.93
2018-04-13T17:19:23.197Z,15.03
2018-04-13T17:21:50.919Z,14.87
2018-04-13T17:24:18.670Z,14.67
2018-04-13T17:26:46.571Z,14.53
2018-04-13T17:29:14.416Z,14.50
2018-04-13T17:31:43.104Z,14.54
2018-04-13T17:34:11.022Z,14.34
2018-04-13T17:36:38.735Z,14.33
2018-04-13T17:39:06.653Z,14.28
2018-04-13T17:41:34.929Z,14.16
2018-04-13T17:44:02.792Z,14.23
2018-04-13T17:46:30.512Z,14.16
2018-04-13T17:48:58.182Z,14.10
2018-04-13T17:51:26.587Z,14.01
2018-04-13T17:53:54.505Z,14.02
2018-04-13T17:56:22.405Z,13.85
2018-04-13T17:58:50.240Z,13.78
2018-04-13T18:01:18.110Z,13.59
2018-04-13T18:03:45.990Z,13.20
2018-04-13T18:06:13.993Z,13.31
2018-04-13T18:08:42.033Z,13.40
2018-04-13T18:11:10.107Z,13.19
2018-04-13T18:13:37.969Z,13.14
2018-04-13T18:16:05.759Z,12.97
2018-04-13T18:18:34.017Z,12.91
2018-04-13T18:21:02.530Z,12.92
2018-04-13T18:23:30.363Z,12.79
2018-04-13T18:25:58.124Z,12.57
2018-04-13T18:28:25.897Z,12.54
2018-04-13T18:30:54.361Z,12.56
2018-04-13T18:33:22.142Z,12.38
2018-04-13T18:35:49.940Z,12.42
2018-04-13T18:38:17.618Z,12.30
2018-04-13T18:40:45.459Z,12.26
2018-04-13T18:43:13.077Z,11.97
2018-04-13T18:45:41.102Z,12.23
2018-04-13T18:48:09.189Z,12.38
2018-04-13T18:50:37.405Z,12.20
2018-04-13T18:53:05.450Z,12.21
2018-04-13T18:55:33.075Z,12.10
2018-04-13T18:58:00.804Z,12.09
2018-04-13T19:00:28.483Z,11.96
2018-04-13T19:02:56.156Z,11.98
2018-04-13T19:05:23.892Z,12.04
2018-04-13T19:07:51.660Z,11.87
2018-04-13T19:10:19.359Z,11.81
2018-04-13T19:12:47.107Z,11.64
2018-04-13T19:15:16.046Z,11.53
2018-04-13T19:17:43.725Z,11.51
2018-04-13T19:20:11.381Z,11.48
2018-04-13T19:22:39.066Z,11.41
2018-04-13T19:25:06.710Z,11.50
2018-04-13T19:27:34.408Z,11.57
2018-04-13T19:30:02.000Z,11.59
2018-04-13T19:32:29.653Z,11.53
2018-04-13T19:34:57.362Z,11.23
2018-04-13T19:37:25.976Z,11.21
2018-04-13T19:39:53.713Z,11.09
2018-04-13T19:42:21.360Z,10.96
2018-04-13T19:44:49.018Z,11.01
2018-04-13T19:47:16.663Z,11.25
2018-04-13T19:49:44.370Z,11.22
2018-04-13T19:52:12.045Z,11.00
2018-04-13T19:54:39.725Z,11.01
2018-04-13T19:57:08.225Z,10.98
2018-04-13T19:59:35.896Z,10.81
2018-04-13T20:02:04.053Z,10.66
2018-04-13T20:04:32.771Z,10.81
2018-04-13T20:07:00.441Z,10.63
2018-04-13T20:09:28.080Z,10.58
2018-04-13T20:11:58.450Z,10.42
2018-04-13T20:14:26.643Z,10.46
2018-04-13T20:16:54.307Z,10.41
2018-04-13T20:19:21.967Z,10.36
2018-04-13T20:21:49.625Z,10.47
2018-04-13T20:24:17.277Z,10.41
2018-04-13T20:26:45.025Z,10.50
2018-04-13T20:29:12.715Z,10.72
2018-04-13T20:31:40.461Z,10.44
2018-04-13T20:34:08.163Z,10.38
2018-04-13T20:36:36.468Z,10.23
2018-04-13T20:39:04.261Z,10.10
2018-04-13T20:41:31.878Z,10.16
2018-04-13T20:43:59.552Z,10.19
2018-04-13T20:46:27.187Z,10.13
2018-04-13T20:48:54.886Z,10.08
2018-04-13T20:51:22.703Z,10.11
2018-04-13T20:53:50.357Z,10.14
2018-04-13T20:56:18.010Z,10.05
2018-04-13T20:58:46.317Z,9.89
2018-04-13T21:01:13.970Z,9.78
2018-04-13T21:03:41.644Z,9.85
2018-04-13T21:06:09.471Z,9.73
2018-04-13T21:08:37.354Z,9.81
2018-04-13T21:11:04.996Z,9.62
2018-04-13T21:13:32.618Z,9.51
2018-04-13T21:16:00.235Z,9.44
2018-04-13T21:18:27.848Z,9.43
2018-04-13T21:20:55.508Z,9.65
2018-04-13T21:23:23.171Z,9.51
2018-04-13T21:25:50.824Z,9.39
2018-04-13T21:28:18.573Z,9.43
2018-04-13T21:30:46.295Z,9.38
2018-04-13T21:33:13.909Z,9.21
2018-04-13T21:35:42.330Z,9.01
2018-04-13T21:38:09.939Z,8.90
2018-04-13T21:40:37.638Z,9.16
2018-04-13T21:43:05.242Z,9.16
2018-04-13T21:45:32.963Z,9.12
2018-04-13T21:48:00.663Z,9.13
2018-04-13T21:50:28.296Z,9.23
2018-04-13T21:52:55.964Z,9.07
2018-04-13T21:55:23.604Z,9.12
2018-04-13T21:57:51.264Z,8.82
2018-04-13T22:00:18.937Z,8.84
2018-04-13T22:02:46.612Z,9.01
2018-04-13T22:05:14.251Z,9.02
2018-04-13T22:07:41.884Z,8.94
2018-04-13T22:10:09.556Z,8.82
2018-04-13T22:12:49.092Z,8.71
2018-04-13T22:15:17.652Z,8.76
2018-04-13T22:17:45.363Z,8.71
2018-04-13T22:20:13.020Z,8.48
2018-04-13T22:22:40.642Z,8.59
2018-04-13T22:25:08.246Z,8.43
2018-04-13T22:27:35.892Z,8.54
2018-04-13T22:30:03.575Z,8.45
2018-04-13T22:32:31.186Z,8.28
2018-04-13T22:34:58.901Z,8.04
2018-04-13T22:37:26.604Z,7.99
2018-04-13T22:39:54.325Z,8.02
2018-04-13T22:42:21.993Z,8.00
2018-04-13T22:44:49.614Z,8.32
2018-04-13T22:47:17.267Z,8.12
2018-04-13T22:49:44.919Z,8.15
2018-04-13T22:52:12.611Z,8.26
2018-04-13T22:54:40.235Z,8.16
2018-04-13T22:57:07.888Z,8.33
2018-04-13T22:59:35.549Z,8.11
2018-04-13T23:02:03.157Z,8.04
2018-04-13T23:04:30.861Z,7.91
2018-04-13T23:06:58.502Z,7.90
2018-04-13T23:09:26.181Z,7.95
2018-04-13T23:11:53.895Z,7.95
2018-04-13T23:14:22.064Z,7.92
2018-04-13T23:16:49.710Z,7.77
2018-04-13T23:19:17.300Z,7.71
2018-04-13T23:21:45.600Z,7.74
2018-04-13T23:24:13.272Z,7.88
2018-04-13T23:26:40.924Z,7.65
2018-04-13T23:29:08.583Z,7.74
2018-04-13T23:31:36.253Z,7.52
2018-04-13T23:34:04.876Z,7.46
2018-04-13T23:36:32.666Z,7.27
2018-04-13T23:39:00.341Z,7.55
2018-04-13T23:41:27.981Z,7.28
2018-04-13T23:43:55.662Z,7.33
2018-04-13T23:46:24.261Z,7.55
2018-04-13T23:48:51.907Z,7.41
2018-04-13T23:51:19.603Z,7.40
2018-04-13T23:53:47.907Z,7.37
2018-04-13T23:56:15.750Z,7.26
2018-04-13T23:58:44.541Z,7.12
